createdAt,value
2018-06-10T00:00:53.969Z,11.77
2018-06-10T00:04:54.544Z,13.33
2018-06-10T00:08:48.816Z,11.77
2018-06-10T00:12:43.286Z,15.95
2018-06-10T00:16:37.683Z,10.53
2018-06-10T00:20:32.277Z,14.37
2018-06-10T00:24:27.044Z,11.10
2018-06-10T00:28:26.490Z,11.30
2018-06-10T00:32:20.697Z,11.63
2018-06-10T00:36:14.761Z,11.85
2018-06-10T00:40:08.766Z,10.75
2018-06-10T00:44:03.464Z,12.73
2018-06-10T00:47:57.457Z,11.95
2018-06-10T00:51:51.667Z,9.65
2018-06-10T00:55:45.839Z,14.47
2018-06-10T00:59:39.850Z,13.38
2018-06-10T01:03:33.900Z,14.43
2018-06-10T01:07:28.103Z,10.75
2018-06-10T01:11:22.180Z,10.63
2018-06-10T01:15:16.204Z,12.25
2018-06-10T01:19:10.369Z,14.23
2018-06-10T01:23:03.842Z,18.27
2018-06-10T01:26:57.783Z,21.42
2018-06-10T01:30:51.971Z,19.73
2018-06-10T01:34:46.186Z,19.95
2018-06-10T01:38:40.395Z,14.70
2018-06-10T01:42:35.040Z,12.78
2018-06-10T01:46:32.986Z,11.94
2018-06-10T01:50:35.250Z,13.00
2018-06-10T01:54:28.873Z,11.73
2018-06-10T01:58:22.917Z,10.30
2018-06-10T02:02:16.975Z,11.57
2018-06-10T02:06:11.538Z,15.50
2018-06-10T02:10:05.657Z,14.40
2018-06-10T02:13:59.881Z,14.27
2018-06-10T02:17:53.970Z,14.83
2018-06-10T02:21:47.692Z,15.78
2018-06-10T02:25:41.702Z,14.33
2018-06-10T02:29:35.791Z,15.00
2018-06-10T02:33:30.591Z,17.32
2018-06-10T02:37:24.664Z,15.88
2018-06-10T02:41:18.679Z,21.90
2018-06-10T02:45:12.672Z,23.40
2018-06-10T02:49:07.459Z,25.90
2018-06-10T02:53:01.712Z,28.50
2018-06-10T02:56:55.698Z,27.25
2018-06-10T03:00:49.693Z,26.83
2018-06-10T03:04:43.811Z,28.43
2018-06-10T03:08:41.436Z,28.67
2018-06-10T03:12:37.684Z,31.35
2018-06-10T03:16:31.708Z,31.40
2018-06-10T03:20:25.215Z,28.15
2018-06-10T03:24:19.298Z,27.70
2018-06-10T03:28:14.172Z,31.75
2018-06-10T03:32:08.304Z,30.13
2018-06-10T03:36:02.488Z,31.13
2018-06-10T03:39:56.831Z,27.87
2018-06-10T03:43:50.785Z,32.42
2018-06-10T03:47:44.846Z,30.48
2018-06-10T03:51:38.991Z,30.70
2018-06-10T03:59:51.144Z,35.08
2018-06-10T04:03:46.624Z,32.67
2018-06-10T04:07:40.838Z,31.15
2018-06-10T04:11:35.009Z,30.15
2018-06-10T04:15:28.956Z,31.17
2018-06-10T04:19:22.947Z,27.40
2018-06-10T04:23:16.452Z,24.40
2018-06-10T04:27:11.167Z,23.12
2018-06-10T04:31:05.681Z,22.07
2018-06-10T04:34:59.647Z,20.80
2018-06-10T04:38:53.804Z,22.03
2018-06-10T04:42:48.374Z,19.05
2018-06-10T04:46:42.558Z,20.50
2018-06-10T04:50:37.710Z,19.33
2018-06-10T04:54:31.674Z,18.80
2018-06-10T04:58:29.666Z,17.52
2018-06-10T05:02:26.006Z,17.03
2018-06-10T05:06:20.068Z,17.23
2018-06-10T05:10:14.243Z,16.60
2018-06-10T05:14:08.660Z,15.78
2018-06-10T05:18:02.763Z,16.07
2018-06-10T05:21:56.318Z,18.10
2018-06-10T05:25:50.510Z,18.47
2018-06-10T05:29:44.551Z,19.07
2018-06-10T05:33:38.879Z,17.25
2018-06-10T05:37:33.034Z,17.70
2018-06-10T05:41:28.078Z,20.12
2018-06-10T05:45:22.179Z,19.00
2018-06-10T05:49:16.242Z,20.02
2018-06-10T05:53:10.313Z,20.65
2018-06-10T05:57:04.484Z,19.80
2018-06-10T06:00:58.757Z,20.02
2018-06-10T06:04:53.159Z,20.53
2018-06-10T06:08:48.249Z,21.48
2018-06-10T06:16:36.953Z,15.53
2018-06-10T06:20:30.838Z,15.07
2018-06-10T06:24:24.910Z,15.03
2018-06-10T06:28:18.959Z,12.93
2018-06-10T06:32:13.956Z,13.20
2018-06-10T06:36:08.806Z,11.68
2018-06-10T06:40:03.303Z,11.17
2018-06-10T06:44:01.140Z,12.07
2018-06-10T06:47:55.527Z,11.40
2018-06-10T06:51:50.950Z,10.85
2018-06-10T06:55:46.307Z,11.53
2018-06-10T06:59:41.321Z,10.93
2018-06-10T07:03:35.604Z,11.13
2018-06-10T07:07:30.011Z,11.97
2018-06-10T07:11:24.471Z,11.37
2018-06-10T07:15:19.348Z,12.35
2018-06-10T07:19:13.657Z,11.20
2018-06-10T07:23:08.109Z,11.68
2018-06-10T07:27:02.710Z,15.37
2018-06-10T07:30:56.938Z,15.10
2018-06-10T07:34:51.755Z,15.38
2018-06-10T07:38:47.268Z,15.33
2018-06-10T07:42:41.656Z,15.53
2018-06-10T07:46:36.339Z,16.67
2018-06-10T07:50:31.047Z,17.17
2018-06-10T07:54:27.431Z,18.20
2018-06-10T07:58:22.786Z,17.80
2018-06-10T08:02:19.316Z,20.15
2018-06-10T08:06:14.768Z,18.10
2018-06-10T08:10:11.381Z,19.67
2018-06-10T08:14:05.667Z,21.00
2018-06-10T08:17:59.931Z,19.17
2018-06-10T08:21:53.983Z,19.33
2018-06-10T08:25:48.465Z,21.50
2018-06-10T08:29:42.720Z,23.22
2018-06-10T08:33:36.232Z,22.45
2018-06-10T08:37:29.543Z,23.90
2018-06-10T08:41:23.562Z,25.20
2018-06-10T08:45:17.787Z,28.13
2018-06-10T08:49:11.790Z,30.17
2018-06-10T08:53:05.909Z,30.63
2018-06-10T08:57:00.497Z,29.77
2018-06-10T09:00:55.709Z,29.02
2018-06-10T09:04:50.031Z,29.03
2018-06-10T09:08:44.967Z,28.10
2018-06-10T09:12:39.094Z,38.90
2018-06-10T09:16:33.943Z,38.87
2018-06-10T09:20:27.439Z,39.63
2018-06-10T09:24:21.682Z,49.42
2018-06-10T09:28:15.922Z,47.70
2018-06-10T09:32:09.650Z,45.98
2018-06-10T09:36:03.865Z,50.27
2018-06-10T09:39:57.834Z,47.90
2018-06-10T09:43:53.009Z,44.67
2018-06-10T09:47:47.061Z,47.43
2018-06-10T09:51:41.284Z,46.70
2018-06-10T09:55:35.185Z,44.57
2018-06-10T09:59:29.092Z,44.03
2018-06-10T10:03:23.196Z,43.90
2018-06-10T10:07:17.328Z,45.20
2018-06-10T10:11:11.478Z,48.10
2018-06-10T10:15:05.552Z,46.63
2018-06-10T10:18:59.560Z,39.67
2018-06-10T10:22:52.702Z,40.80
2018-06-10T10:26:46.626Z,42.43
2018-06-10T10:30:40.680Z,33.45
2018-06-10T10:34:35.090Z,37.90
2018-06-10T10:38:29.085Z,31.60
2018-06-10T10:42:23.135Z,30.88
2018-06-10T10:46:17.304Z,28.50
2018-06-10T10:50:11.426Z,28.37
2018-06-10T10:54:05.573Z,29.30
2018-06-10T10:58:00.730Z,28.90
2018-06-10T11:01:55.263Z,25.62
2018-06-10T11:05:49.376Z,24.82
2018-06-10T11:09:44.647Z,25.80
2018-06-10T11:13:39.377Z,27.00
2018-06-10T11:17:34.534Z,24.03
2018-06-10T11:21:28.009Z,20.50
2018-06-10T11:25:22.150Z,25.62
2018-06-10T11:29:16.335Z,22.23
2018-06-10T11:33:10.488Z,18.97
2018-06-10T11:37:05.847Z,21.20
2018-06-10T11:41:03.815Z,23.00
2018-06-10T11:44:57.997Z,23.63
2018-06-10T11:48:53.168Z,22.13
2018-06-10T11:52:48.092Z,20.80
2018-06-10T11:56:42.814Z,22.47
2018-06-10T12:00:37.003Z,20.37
2018-06-10T12:04:30.984Z,20.95
2018-06-10T12:08:25.012Z,23.60
2018-06-10T12:12:19.087Z,22.03
2018-06-10T12:16:13.129Z,23.50
2018-06-10T12:20:08.903Z,24.17
2018-06-10T12:24:02.395Z,21.40
2018-06-10T12:27:56.419Z,20.40
2018-06-10T12:31:50.465Z,20.03
2018-06-10T12:35:44.435Z,19.67
2018-06-10T12:39:38.512Z,19.48
2018-06-10T12:43:34.980Z,18.65
2018-06-10T12:47:29.874Z,18.48
2018-06-10T12:51:23.931Z,17.60
2018-06-10T12:55:18.285Z,16.80
2018-06-10T12:59:12.279Z,17.13
2018-06-10T13:03:06.434Z,16.82
2018-06-10T13:07:00.564Z,18.32
2018-06-10T13:10:55.174Z,15.57
2018-06-10T13:14:49.153Z,12.47
2018-06-10T13:18:44.081Z,15.30
2018-06-10T13:22:37.938Z,14.78
2018-06-10T13:26:32.007Z,12.98
2018-06-10T13:30:26.067Z,15.67
2018-06-10T13:34:20.203Z,13.90
2018-06-10T13:38:14.650Z,14.15
2018-06-10T13:42:09.311Z,13.13
2018-06-10T13:46:03.500Z,11.57
2018-06-10T13:49:57.635Z,11.35
2018-06-10T13:53:52.530Z,11.23
2018-06-10T13:57:46.685Z,12.03
2018-06-10T14:01:40.744Z,10.53
2018-06-10T14:05:35.109Z,10.63
2018-06-10T14:09:29.443Z,10.70
2018-06-10T14:13:23.544Z,9.93
2018-06-10T14:17:17.575Z,11.83
2018-06-10T14:21:11.104Z,12.20
2018-06-10T14:25:06.372Z,12.63
2018-06-10T14:29:01.684Z,13.38
2018-06-10T14:32:55.707Z,13.63
2018-06-10T14:36:49.805Z,14.13
2018-06-10T14:40:44.353Z,13.13
2018-06-10T14:44:38.060Z,14.50
2018-06-10T14:48:32.280Z,12.90
2018-06-10T14:52:26.979Z,11.03
2018-06-10T14:56:21.015Z,13.43
2018-06-10T15:00:15.017Z,12.47
2018-06-10T15:04:09.142Z,13.25
2018-06-10T15:08:03.121Z,13.22
2018-06-10T15:11:57.288Z,12.63
2018-06-10T15:15:51.388Z,12.57
2018-06-10T15:19:45.534Z,13.17
2018-06-10T15:23:38.976Z,11.70
2018-06-10T15:27:33.052Z,11.43
2018-06-10T15:31:28.120Z,9.65
2018-06-10T15:35:23.355Z,10.07
2018-06-10T15:39:18.060Z,12.73
2018-06-10T15:43:12.044Z,11.43
2018-06-10T15:47:06.069Z,9.97
2018-06-10T15:51:00.222Z,9.83
2018-06-10T15:54:54.192Z,10.30
2018-06-10T15:58:48.558Z,10.73
2018-06-10T16:02:42.758Z,9.05
2018-06-10T16:06:36.707Z,9.30
2018-06-10T16:10:31.257Z,9.30
2018-06-10T16:14:25.375Z,9.03
2018-06-10T16:18:20.100Z,8.73
2018-06-10T16:22:13.541Z,8.60
2018-06-10T16:26:07.700Z,7.40
2018-06-10T16:30:01.703Z,9.93
2018-06-10T16:33:55.779Z,8.48
2018-06-10T16:37:49.792Z,8.27
2018-06-10T16:41:44.004Z,10.50
2018-06-10T16:45:38.024Z,8.83
2018-06-10T16:49:32.192Z,8.33
2018-06-10T16:53:26.253Z,12.60
2018-06-10T16:57:20.331Z,8.65
2018-06-10T17:01:14.405Z,7.67
2018-06-10T17:05:08.577Z,8.30
2018-06-10T17:09:03.444Z,9.58
2018-06-10T17:12:58.607Z,9.70
2018-06-10T17:16:52.748Z,10.05
2018-06-10T17:20:46.965Z,8.90
2018-06-10T17:24:40.398Z,9.33
2018-06-10T17:28:34.415Z,9.65
2018-06-10T17:32:28.549Z,9.53
2018-06-10T17:36:22.936Z,8.53
2018-06-10T17:40:17.533Z,10.20
2018-06-10T17:44:11.742Z,9.50
2018-06-10T17:48:05.851Z,8.40
2018-06-10T17:51:59.884Z,7.70
2018-06-10T17:55:54.035Z,8.15
2018-06-10T17:59:48.104Z,9.40
2018-06-10T18:03:42.092Z,9.23
2018-06-10T18:07:36.114Z,8.57
2018-06-10T18:11:31.388Z,9.43
2018-06-10T18:15:25.490Z,9.07
2018-06-10T18:19:19.518Z,9.30
2018-06-10T18:23:13.102Z,10.25
2018-06-10T18:27:07.138Z,9.30
2018-06-10T18:31:01.209Z,9.03
2018-06-10T18:34:55.225Z,7.80
2018-06-10T18:38:49.264Z,9.97
2018-06-10T18:42:43.585Z,8.73
2018-06-10T18:46:37.777Z,8.40
2018-06-10T18:50:31.921Z,9.05
2018-06-10T18:54:26.064Z,8.93
2018-06-10T18:58:20.076Z,9.25
2018-06-10T19:02:14.223Z,9.90
2018-06-10T19:06:08.476Z,10.08
2018-06-10T19:10:02.632Z,9.05
2018-06-10T19:13:56.984Z,11.43
2018-06-10T19:17:49.958Z,11.18
2018-06-10T19:21:43.697Z,10.45
2018-06-10T19:25:37.784Z,12.50
2018-06-10T19:29:31.887Z,10.48
2018-06-10T19:33:25.939Z,10.15
2018-06-10T19:37:20.094Z,12.47
2018-06-10T19:41:14.437Z,10.95
2018-06-10T19:45:08.499Z,11.35
2018-06-10T19:49:02.545Z,10.08
2018-06-10T19:52:57.109Z,10.27
2018-06-10T19:56:50.954Z,11.53
2018-06-10T20:00:46.259Z,12.37
2018-06-10T20:04:43.135Z,10.10
2018-06-10T20:08:37.127Z,9.73
2018-06-10T20:12:31.792Z,8.20
2018-06-10T20:16:25.894Z,12.87
2018-06-10T20:20:20.180Z,11.50
2018-06-10T20:24:15.778Z,11.00
2018-06-10T20:28:10.107Z,10.78
2018-06-10T20:32:04.218Z,11.60
2018-06-10T20:36:03.981Z,10.80
2018-06-10T20:40:03.327Z,11.43
2018-06-10T20:43:57.066Z,11.73
2018-06-10T20:47:51.141Z,12.55
2018-06-10T20:51:45.216Z,12.97
2018-06-10T20:55:39.261Z,12.68
2018-06-10T20:59:33.492Z,15.60
2018-06-10T21:03:28.036Z,14.73
2018-06-10T21:07:22.070Z,14.53
2018-06-10T21:11:18.620Z,14.58
2018-06-10T21:15:13.246Z,14.67
2018-06-10T21:19:08.310Z,14.63
2018-06-10T21:23:02.815Z,14.83
2018-06-10T21:26:56.885Z,14.13
2018-06-10T21:30:52.779Z,14.30
2018-06-10T21:34:47.636Z,14.83
2018-06-10T21:38:42.195Z,15.58
2018-06-10T21:42:37.211Z,13.80
2018-06-10T21:46:31.266Z,16.32
2018-06-10T21:50:25.385Z,15.90
2018-06-10T21:54:19.399Z,17.20
2018-06-10T21:58:13.436Z,15.63
2018-06-10T22:02:07.279Z,15.80
2018-06-10T22:06:01.256Z,16.20
2018-06-10T22:09:55.332Z,16.13
2018-06-10T22:13:49.489Z,17.63
2018-06-10T22:17:45.229Z,16.65
2018-06-10T22:21:39.183Z,16.55
2018-06-10T22:25:32.727Z,15.20
2018-06-10T22:29:26.803Z,16.50
2018-06-10T22:33:21.283Z,15.97
2018-06-10T22:37:15.371Z,17.42
2018-06-10T22:41:09.812Z,16.15
2018-06-10T22:45:03.988Z,16.20
2018-06-10T22:48:59.191Z,16.23
2018-06-10T22:55:02.550Z,15.20
2018-06-10T22:58:56.979Z,16.53
2018-06-10T23:02:51.574Z,16.25
2018-06-10T23:06:45.636Z,15.83
2018-06-10T23:10:39.629Z,14.77
2018-06-10T23:14:33.887Z,15.20
2018-06-10T23:18:27.896Z,14.47
2018-06-10T23:22:21.397Z,16.03
2018-06-10T23:26:15.611Z,15.78
2018-06-10T23:30:09.601Z,15.10
2018-06-10T23:34:03.649Z,17.52
2018-06-10T23:37:57.868Z,16.05
2018-06-10T23:41:51.902Z,16.00
2018-06-10T23:45:45.863Z,16.73
2018-06-10T23:49:39.990Z,17.00
2018-06-10T23:53:34.145Z,18.27
2018-06-10T23:57:28.287Z,18.97
